sensor_id;sensor_type;location;lat;lon;timestamp;pressure;altitude;pressure_sealevel;temperature;humidity
22651;BME280;11492;42.646;23.400;2022-12-24T00:02:09;94942.72;;;3.95;77.99
22651;BME280;11492;42.646;23.400;2022-12-24T00:04:34;94932.88;;;3.73;77.43
22651;BME280;11492;42.646;23.400;2022-12-24T00:07:00;94943.50;;;3.69;78.92
22651;BME280;11492;42.646;23.400;2022-12-24T00:09:25;94941.81;;;3.51;78.99
22651;BME280;11492;42.646;23.400;2022-12-24T00:11:50;94930.56;;;3.44;79.78
22651;BME280;11492;42.646;23.400;2022-12-24T00:14:16;94933.09;;;3.53;79.58
22651;BME280;11492;42.646;23.400;2022-12-24T00:16:41;94930.22;;;3.66;78.60
22651;BME280;11492;42.646;23.400;2022-12-24T00:19:07;94933.97;;;3.62;78.57
22651;BME280;11492;42.646;23.400;2022-12-24T00:21:32;94943.13;;;3.64;79.49
22651;BME280;11492;42.646;23.400;2022-12-24T00:23:57;94941.09;;;3.68;79.68
22651;BME280;11492;42.646;23.400;2022-12-24T00:26:23;94940.97;;;3.60;79.00
22651;BME280;11492;42.646;23.400;2022-12-24T00:28:48;94940.75;;;3.53;79.74
22651;BME280;11492;42.646;23.400;2022-12-24T00:31:16;94933.97;;;3.62;79.77
22651;BME280;11492;42.646;23.400;2022-12-24T00:33:44;94936.66;;;3.70;79.26
22651;BME280;11492;42.646;23.400;2022-12-24T00:36:09;94931.41;;;3.71;79.60
22651;BME280;11492;42.646;23.400;2022-12-24T00:38:35;94930.56;;;3.80;78.46
22651;BME280;11492;42.646;23.400;2022-12-24T00:41:03;94923.47;;;3.74;78.56
22651;BME280;11492;42.646;23.400;2022-12-24T00:43:30;94925.09;;;3.75;78.89
22651;BME280;11492;42.646;23.400;2022-12-24T00:45:56;94923.94;;;3.60;78.81
22651;BME280;11492;42.646;23.400;2022-12-24T00:48:22;94917.94;;;3.52;79.71
22651;BME280;11492;42.646;23.400;2022-12-24T00:50:48;94929.44;;;3.56;79.88
22651;BME280;11492;42.646;23.400;2022-12-24T00:53:14;94933.50;;;3.49;79.55
22651;BME280;11492;42.646;23.400;2022-12-24T00:55:40;94936.97;;;3.57;80.14
22651;BME280;11492;42.646;23.400;2022-12-24T00:58:05;94923.94;;;3.60;79.46
22651;BME280;11492;42.646;23.400;2022-12-24T01:00:31;94932.50;;;3.69;79.28
22651;BME280;11492;42.646;23.400;2022-12-24T01:02:56;94932.91;;;3.64;78.52
22651;BME280;11492;42.646;23.400;2022-12-24T01:05:22;94941.19;;;3.75;78.87
22651;BME280;11492;42.646;23.400;2022-12-24T01:07:47;94934.50;;;3.74;78.40
22651;BME280;11492;42.646;23.400;2022-12-24T01:10:17;94930.84;;;3.77;77.98
22651;BME280;11492;42.646;23.400;2022-12-24T01:12:44;94930.44;;;3.72;78.82
22651;BME280;11492;42.646;23.400;2022-12-24T01:15:11;94926.44;;;3.70;77.80
22651;BME280;11492;42.646;23.400;2022-12-24T01:17:38;94928.06;;;3.61;78.27
22651;BME280;11492;42.646;23.400;2022-12-24T01:20:06;94941.22;;;3.66;77.65
22651;BME280;11492;42.646;23.400;2022-12-24T01:22:32;94947.13;;;3.67;78.24
22651;BME280;11492;42.646;23.400;2022-12-24T01:24:57;94924.88;;;3.59;78.35
22651;BME280;11492;42.646;23.400;2022-12-24T01:27:23;94931.88;;;3.57;77.60
22651;BME280;11492;42.646;23.400;2022-12-24T01:29:48;94929.47;;;3.47;76.53
22651;BME280;11492;42.646;23.400;2022-12-24T01:32:14;94933.13;;;3.44;77.53
22651;BME280;11492;42.646;23.400;2022-12-24T01:34:39;94921.88;;;3.37;78.04
22651;BME280;11492;42.646;23.400;2022-12-24T01:37:05;94910.59;;;3.30;77.40
22651;BME280;11492;42.646;23.400;2022-12-24T01:39:30;94928.44;;;3.30;77.17
22651;BME280;11492;42.646;23.400;2022-12-24T01:41:56;94934.50;;;3.20;77.75
22651;BME280;11492;42.646;23.400;2022-12-24T01:44:42;94945.66;;;3.19;77.72
22651;BME280;11492;42.646;23.400;2022-12-24T01:47:24;94945.53;;;3.11;77.77
22651;BME280;11492;42.646;23.400;2022-12-24T01:49:55;94945.53;;;3.11;76.80
22651;BME280;11492;42.646;23.400;2022-12-24T01:52:30;94947.00;;;3.04;76.95
22651;BME280;11492;42.646;23.400;2022-12-24T01:55:23;94921.56;;;2.86;78.32
22651;BME280;11492;42.646;23.400;2022-12-24T01:57:55;94934.41;;;2.94;78.46
22651;BME280;11492;42.646;23.400;2022-12-24T02:00:22;94938.31;;;2.88;77.86
22651;BME280;11492;42.646;23.400;2022-12-24T02:02:50;94931.47;;;2.79;78.22
22651;BME280;11492;42.646;23.400;2022-12-24T02:07:49;94930.94;;;2.76;78.23
22651;BME280;11492;42.646;23.400;2022-12-24T02:10:15;94925.16;;;2.74;77.84
22651;BME280;11492;42.646;23.400;2022-12-24T02:12:42;94915.66;;;2.76;80.08
22651;BME280;11492;42.646;23.400;2022-12-24T02:15:09;94923.81;;;2.79;79.51
22651;BME280;11492;42.646;23.400;2022-12-24T02:17:52;94919.81;;;2.77;79.93
22651;BME280;11492;42.646;23.400;2022-12-24T02:24:24;94931.34;;;2.81;81.96
22651;BME280;11492;42.646;23.400;2022-12-24T02:29:13;94930.94;;;2.85;81.61
22651;BME280;11492;42.646;23.400;2022-12-24T02:34:32;94933.06;;;2.90;81.29
22651;BME280;11492;42.646;23.400;2022-12-24T02:37:06;94944.91;;;2.81;81.50
22651;BME280;11492;42.646;23.400;2022-12-24T02:39:57;94938.31;;;2.79;81.72
22651;BME280;11492;42.646;23.400;2022-12-24T02:42:30;94928.78;;;2.62;82.54
22651;BME280;11492;42.646;23.400;2022-12-24T02:45:00;94934.69;;;2.72;82.15
22651;BME280;11492;42.646;23.400;2022-12-24T02:47:27;94930.41;;;2.72;81.39
22651;BME280;11492;42.646;23.400;2022-12-24T02:49:54;94921.81;;;2.73;81.91
22651;BME280;11492;42.646;23.400;2022-12-24T02:52:40;94930.53;;;2.90;81.42
22651;BME280;11492;42.646;23.400;2022-12-24T03:00:22;94891.50;;;2.89;81.40
22651;BME280;11492;42.646;23.400;2022-12-24T03:11:27;94917.66;;;3.00;80.07
22651;BME280;11492;42.646;23.400;2022-12-24T03:13:34;94915.22;;;2.90;80.55
22651;BME280;11492;42.646;23.400;2022-12-24T03:16:03;94901.97;;;2.96;80.09
22651;BME280;11492;42.646;23.400;2022-12-24T03:18:30;94909.31;;;2.98;79.29
22651;BME280;11492;42.646;23.400;2022-12-24T03:21:10;94913.50;;;2.90;78.80
22651;BME280;11492;42.646;23.400;2022-12-24T03:23:36;94903.56;;;2.87;78.41
22651;BME280;11492;42.646;23.400;2022-12-24T03:26:06;94911.88;;;2.89;78.05
22651;BME280;11492;42.646;23.400;2022-12-24T03:28:32;94920.63;;;2.77;77.97
22651;BME280;11492;42.646;23.400;2022-12-24T03:31:03;94926.50;;;2.78;77.57
22651;BME280;11492;42.646;23.400;2022-12-24T03:33:29;94914.59;;;2.69;77.27
22651;BME280;11492;42.646;23.400;2022-12-24T03:35:54;94918.09;;;2.49;80.60
22651;BME280;11492;42.646;23.400;2022-12-24T03:38:20;94914.56;;;2.32;81.69
22651;BME280;11492;42.646;23.400;2022-12-24T03:40:45;94914.19;;;2.46;81.99
22651;BME280;11492;42.646;23.400;2022-12-24T03:43:11;94922.34;;;2.58;81.58
22651;BME280;11492;42.646;23.400;2022-12-24T03:45:36;94915.13;;;2.63;80.53
22651;BME280;11492;42.646;23.400;2022-12-24T03:48:02;94918.34;;;2.65;80.59
22651;BME280;11492;42.646;23.400;2022-12-24T03:50:27;94910.00;;;2.63;80.83
22651;BME280;11492;42.646;23.400;2022-12-24T03:52:54;94915.66;;;2.48;80.58
22651;BME280;11492;42.646;23.400;2022-12-24T03:55:19;94924.38;;;2.55;80.62
22651;BME280;11492;42.646;23.400;2022-12-24T03:57:45;94894.06;;;2.43;80.40
22651;BME280;11492;42.646;23.400;2022-12-24T04:00:10;94931.47;;;2.61;80.09
22651;BME280;11492;42.646;23.400;2022-12-24T04:02:36;94920.50;;;2.60;80.73
22651;BME280;11492;42.646;23.400;2022-12-24T04:05:01;94925.31;;;2.63;79.56
22651;BME280;11492;42.646;23.400;2022-12-24T04:07:27;94920.50;;;2.51;79.95
22651;BME280;11492;42.646;23.400;2022-12-24T04:09:52;94933.78;;;2.54;80.04
22651;BME280;11492;42.646;23.400;2022-12-24T04:12:18;94930.00;;;2.49;80.23
22651;BME280;11492;42.646;23.400;2022-12-24T04:14:43;94934.41;;;2.47;79.95
22651;BME280;11492;42.646;23.400;2022-12-24T04:17:08;94925.72;;;2.40;80.73
22651;BME280;11492;42.646;23.400;2022-12-24T04:19:34;94941.53;;;2.34;81.29
22651;BME280;11492;42.646;23.400;2022-12-24T04:21:59;94946.75;;;2.42;81.29
22651;BME280;11492;42.646;23.400;2022-12-24T04:24:25;94922.59;;;2.27;80.96
22651;BME280;11492;42.646;23.400;2022-12-24T04:26:50;94939.63;;;2.27;81.66
22651;BME280;11492;42.646;23.400;2022-12-24T04:29:15;94924.63;;;2.24;81.84
22651;BME280;11492;42.646;23.400;2022-12-24T04:31:41;94950.91;;;2.34;81.15
22651;BME280;11492;42.646;23.400;2022-12-24T04:34:06;94941.38;;;2.36;81.33
22651;BME280;11492;42.646;23.400;2022-12-24T04:36:32;94956.81;;;2.44;82.13
22651;BME280;11492;42.646;23.400;2022-12-24T04:38:57;94947.81;;;2.40;81.17
22651;BME280;11492;42.646;23.400;2022-12-24T04:41:24;94950.50;;;2.47;81.17
22651;BME280;11492;42.646;23.400;2022-12-24T04:43:51;94959.91;;;2.56;80.56
22651;BME280;11492;42.646;23.400;2022-12-24T04:46:19;94976.00;;;2.57;80.04
22651;BME280;11492;42.646;23.400;2022-12-24T04:48:46;94968.50;;;2.55;79.49
22651;BME280;11492;42.646;23.400;2022-12-24T04:51:13;94980.53;;;2.53;78.64
22651;BME280;11492;42.646;23.400;2022-12-24T04:53:39;94968.72;;;2.43;78.99
22651;BME280;11492;42.646;23.400;2022-12-24T04:56:13;94958.69;;;2.42;78.82
22651;BME280;11492;42.646;23.400;2022-12-24T04:58:39;94968.72;;;2.43;80.71
22651;BME280;11492;42.646;23.400;2022-12-24T05:01:06;94965.78;;;2.47;80.84
22651;BME280;11492;42.646;23.400;2022-12-24T05:03:33;94964.47;;;2.44;80.20
22651;BME280;11492;42.646;23.400;2022-12-24T05:06:03;94963.63;;;2.43;80.33
22651;BME280;11492;42.646;23.400;2022-12-24T05:08:29;94959.50;;;2.51;80.58
22651;BME280;11492;42.646;23.400;2022-12-24T05:10:56;94962.97;;;2.50;80.70
22651;BME280;11492;42.646;23.400;2022-12-24T05:13:21;94954.78;;;2.47;80.34
22651;BME280;11492;42.646;23.400;2022-12-24T05:15:47;94949.97;;;2.53;80.62
22651;BME280;11492;42.646;23.400;2022-12-24T05:18:12;94950.66;;;2.55;80.17
22651;BME280;11492;42.646;23.400;2022-12-24T05:20:40;94933.88;;;2.53;79.42
22651;BME280;11492;42.646;23.400;2022-12-24T05:23:05;94935.50;;;2.54;79.72
22651;BME280;11492;42.646;23.400;2022-12-24T05:25:49;94925.31;;;2.45;79.90
22651;BME280;11492;42.646;23.400;2022-12-24T05:28:33;94926.25;;;2.34;80.00
22651;BME280;11492;42.646;23.400;2022-12-24T05:30:58;94935.50;;;2.45;80.25
22651;BME280;11492;42.646;23.400;2022-12-24T05:33:24;94940.84;;;2.42;80.64
22651;BME280;11492;42.646;23.400;2022-12-24T05:35:51;94945.53;;;2.18;80.59
22651;BME280;11492;42.646;23.400;2022-12-24T05:38:16;94946.13;;;2.01;81.64
22651;BME280;11492;42.646;23.400;2022-12-24T05:40:41;94932.72;;;1.99;82.24
22651;BME280;11492;42.646;23.400;2022-12-24T05:43:07;94922.81;;;1.97;83.11
22651;BME280;11492;42.646;23.400;2022-12-24T05:45:32;94926.06;;;2.08;82.91
22651;BME280;11492;42.646;23.400;2022-12-24T05:47:57;94931.16;;;2.17;83.04
22651;BME280;11492;42.646;23.400;2022-12-24T05:50:23;94916.03;;;2.16;82.42
22651;BME280;11492;42.646;23.400;2022-12-24T05:52:48;94936.16;;;2.47;81.99
22651;BME280;11492;42.646;23.400;2022-12-24T05:55:14;94933.88;;;2.62;81.44
22651;BME280;11492;42.646;23.400;2022-12-24T05:57:39;94933.88;;;2.62;80.99
22651;BME280;11492;42.646;23.400;2022-12-24T06:00:07;94913.78;;;2.59;79.61
22651;BME280;11492;42.646;23.400;2022-12-24T06:02:33;94924.66;;;2.61;80.32
22651;BME280;11492;42.646;23.400;2022-12-24T06:04:58;94932.94;;;2.63;79.37
22651;BME280;11492;42.646;23.400;2022-12-24T06:07:24;94935.63;;;2.62;78.97
22651;BME280;11492;42.646;23.400;2022-12-24T06:09:49;94938.97;;;2.62;79.18
22651;BME280;11492;42.646;23.400;2022-12-24T06:12:14;94939.38;;;2.58;78.51
22651;BME280;11492;42.646;23.400;2022-12-24T06:14:40;94941.66;;;2.51;77.66
22651;BME280;11492;42.646;23.400;2022-12-24T06:17:05;94945.81;;;2.52;76.60
22651;BME280;11492;42.646;23.400;2022-12-24T06:19:31;94956.91;;;2.33;77.49
22651;BME280;11492;42.646;23.400;2022-12-24T06:21:56;94962.66;;;2.16;77.41
22651;BME280;11492;42.646;23.400;2022-12-24T06:24:21;94964.63;;;2.03;77.92
22651;BME280;11492;42.646;23.400;2022-12-24T06:26:47;94961.13;;;1.95;77.23
22651;BME280;11492;42.646;23.400;2022-12-24T06:29:12;94960.84;;;1.89;77.54
22651;BME280;11492;42.646;23.400;2022-12-24T06:31:38;94973.38;;;1.81;78.06
22651;BME280;11492;42.646;23.400;2022-12-24T06:34:03;94960.75;;;1.70;77.57
22651;BME280;11492;42.646;23.400;2022-12-24T06:36:29;94950.38;;;1.53;78.26
22651;BME280;11492;42.646;23.400;2022-12-24T06:38:54;94986.19;;;1.70;78.94
22651;BME280;11492;42.646;23.400;2022-12-24T06:41:20;94976.22;;;1.58;79.03
22651;BME280;11492;42.646;23.400;2022-12-24T06:43:48;94967.63;;;1.49;79.14
22651;BME280;11492;42.646;23.400;2022-12-24T06:46:15;94990.41;;;1.60;78.62
22651;BME280;11492;42.646;23.400;2022-12-24T06:48:42;94993.22;;;1.57;79.88
22651;BME280;11492;42.646;23.400;2022-12-24T06:51:08;94992.28;;;1.58;80.19
22651;BME280;11492;42.646;23.400;2022-12-24T06:53:34;94983.56;;;1.51;79.94
22651;BME280;11492;42.646;23.400;2022-12-24T06:56:03;95002.47;;;1.58;79.67
22651;BME280;11492;42.646;23.400;2022-12-24T06:58:29;94993.47;;;1.54;79.93
22651;BME280;11492;42.646;23.400;2022-12-24T07:00:55;94989.09;;;1.56;80.12
22651;BME280;11492;42.646;23.400;2022-12-24T07:03:21;94992.59;;;1.65;79.52
22651;BME280;11492;42.646;23.400;2022-12-24T07:05:46;95005.66;;;1.80;80.03
22651;BME280;11492;42.646;23.400;2022-12-24T07:08:12;95000.19;;;1.85;79.55
22651;BME280;11492;42.646;23.400;2022-12-24T07:10:37;95003.44;;;1.96;79.99
22651;BME280;11492;42.646;23.400;2022-12-24T07:13:02;94989.44;;;2.11;80.33
22651;BME280;11492;42.646;23.400;2022-12-24T07:15:28;94977.16;;;2.25;80.02
22651;BME280;11492;42.646;23.400;2022-12-24T07:17:53;94977.28;;;2.33;78.93
22651;BME280;11492;42.646;23.400;2022-12-24T07:20:19;94993.66;;;2.40;79.06
22651;BME280;11492;42.646;23.400;2022-12-24T07:22:44;94998.09;;;2.47;79.19
22651;BME280;11492;42.646;23.400;2022-12-24T07:25:10;94965.38;;;2.43;79.87
22651;BME280;11492;42.646;23.400;2022-12-24T07:27:36;94991.16;;;2.68;79.38
22651;BME280;11492;42.646;23.400;2022-12-24T07:30:02;94968.22;;;2.68;79.48
22651;BME280;11492;42.646;23.400;2022-12-24T07:32:28;94988.88;;;2.93;78.76
22651;BME280;11492;42.646;23.400;2022-12-24T07:34:53;94975.47;;;2.91;78.78
22651;BME280;11492;42.646;23.400;2022-12-24T07:37:19;94990.91;;;3.08;78.46
22651;BME280;11492;42.646;23.400;2022-12-24T07:39:44;94975.06;;;3.14;79.34
22651;BME280;11492;42.646;23.400;2022-12-24T07:42:09;94981.19;;;3.30;78.51
22651;BME280;11492;42.646;23.400;2022-12-24T07:44:35;94988.53;;;3.51;78.49
22651;BME280;11492;42.646;23.400;2022-12-24T07:47:00;94986.22;;;3.67;78.46
22651;BME280;11492;42.646;23.400;2022-12-24T07:49:26;94984.94;;;3.90;77.78
22651;BME280;11492;42.646;23.400;2022-12-24T07:51:51;94973.59;;;4.01;77.63
22651;BME280;11492;42.646;23.400;2022-12-24T07:54:17;94981.56;;;4.25;76.31
22651;BME280;11492;42.646;23.400;2022-12-24T07:56:42;94983.56;;;4.48;76.23
22651;BME280;11492;42.646;23.400;2022-12-24T07:59:11;94968.47;;;4.54;75.39
22651;BME280;11492;42.646;23.400;2022-12-24T08:01:37;94991.22;;;4.74;75.25
22651;BME280;11492;42.646;23.400;2022-12-24T08:04:02;94984.94;;;4.86;74.54
22651;BME280;11492;42.646;23.400;2022-12-24T08:06:28;94996.91;;;5.20;73.79
22651;BME280;11492;42.646;23.400;2022-12-24T08:08:53;94993.16;;;5.32;73.30
22651;BME280;11492;42.646;23.400;2022-12-24T08:11:18;94998.84;;;5.60;72.69
22651;BME280;11492;42.646;23.400;2022-12-24T08:13:44;95014.03;;;5.79;71.61
22651;BME280;11492;42.646;23.400;2022-12-24T08:16:09;95008.22;;;5.94;71.44
22651;BME280;11492;42.646;23.400;2022-12-24T08:18:35;95013.28;;;6.11;71.38
22651;BME280;11492;42.646;23.400;2022-12-24T08:21:00;95004.13;;;6.09;70.82
22651;BME280;11492;42.646;23.400;2022-12-24T08:23:25;95017.34;;;6.22;70.23
22651;BME280;11492;42.646;23.400;2022-12-24T08:25:51;95012.75;;;6.33;70.64
22651;BME280;11492;42.646;23.400;2022-12-24T08:28:18;95014.06;;;6.45;69.31
22651;BME280;11492;42.646;23.400;2022-12-24T08:30:44;94999.22;;;6.56;69.73
22651;BME280;11492;42.646;23.400;2022-12-24T08:33:10;95004.38;;;6.71;69.10
22651;BME280;11492;42.646;23.400;2022-12-24T08:35:35;95008.44;;;6.82;69.32
22651;BME280;11492;42.646;23.400;2022-12-24T08:38:01;95001.69;;;6.81;68.93
22651;BME280;11492;42.646;23.400;2022-12-24T08:40:27;95001.69;;;6.81;69.21
22651;BME280;11492;42.646;23.400;2022-12-24T08:42:52;95000.28;;;6.86;69.20
22651;BME280;11492;42.646;23.400;2022-12-24T08:45:18;94998.50;;;6.87;68.92
22651;BME280;11492;42.646;23.400;2022-12-24T08:47:44;94985.34;;;6.82;69.65
22651;BME280;11492;42.646;23.400;2022-12-24T08:50:09;94981.19;;;6.81;69.89
22651;BME280;11492;42.646;23.400;2022-12-24T08:52:36;94981.69;;;6.84;70.55
22651;BME280;11492;42.646;23.400;2022-12-24T08:55:02;94978.94;;;6.86;70.47
22651;BME280;11492;42.646;23.400;2022-12-24T08:57:28;94975.88;;;6.82;70.88
22651;BME280;11492;42.646;23.400;2022-12-24T08:59:53;94975.75;;;6.84;70.92
22651;BME280;11492;42.646;23.400;2022-12-24T09:02:19;94979.59;;;6.96;70.71
22651;BME280;11492;42.646;23.400;2022-12-24T09:04:44;94991.97;;;7.00;70.74
22651;BME280;11492;42.646;23.400;2022-12-24T09:07:10;94987.94;;;6.97;70.30
22651;BME280;11492;42.646;23.400;2022-12-24T09:09:35;94988.91;;;6.89;70.37
22651;BME280;11492;42.646;23.400;2022-12-24T09:12:03;94970.13;;;6.80;71.37
22651;BME280;11492;42.646;23.400;2022-12-24T09:14:29;94990.03;;;7.02;71.16
22651;BME280;11492;42.646;23.400;2022-12-24T09:16:54;94991.16;;;7.07;70.93
22651;BME280;11492;42.646;23.400;2022-12-24T09:19:19;94979.94;;;7.08;71.11
22651;BME280;11492;42.646;23.400;2022-12-24T09:21:45;94984.47;;;7.14;70.86
22651;BME280;11492;42.646;23.400;2022-12-24T09:24:10;94985.06;;;7.08;70.38
22651;BME280;11492;42.646;23.400;2022-12-24T09:26:36;94990.84;;;7.18;70.70
22651;BME280;11492;42.646;23.400;2022-12-24T09:29:02;94987.00;;;7.22;69.92
22651;BME280;11492;42.646;23.400;2022-12-24T09:31:27;94975.47;;;7.26;70.64
22651;BME280;11492;42.646;23.400;2022-12-24T09:33:53;94976.75;;;7.38;69.57
22651;BME280;11492;42.646;23.400;2022-12-24T09:36:19;94975.66;;;7.40;69.81
22651;BME280;11492;42.646;23.400;2022-12-24T09:38:45;94989.28;;;7.48;69.39
22651;BME280;11492;42.646;23.400;2022-12-24T09:41:12;94993.28;;;7.51;69.39
22651;BME280;11492;42.646;23.400;2022-12-24T09:43:38;94980.59;;;7.49;69.00
22651;BME280;11492;42.646;23.400;2022-12-24T09:46:16;94977.69;;;7.60;68.57
22651;BME280;11492;42.646;23.400;2022-12-24T09:48:48;94961.97;;;7.47;68.56
22651;BME280;11492;42.646;23.400;2022-12-24T09:51:30;94970.97;;;7.67;68.99
22651;BME280;11492;42.646;23.400;2022-12-24T09:54:40;94975.13;;;7.68;67.89
22651;BME280;11492;42.646;23.400;2022-12-24T09:57:07;94984.13;;;7.72;68.15
22651;BME280;11492;42.646;23.400;2022-12-24T09:59:44;94985.09;;;7.63;67.60
22651;BME280;11492;42.646;23.400;2022-12-24T10:02:14;94976.25;;;7.50;68.29
22651;BME280;11492;42.646;23.400;2022-12-24T10:04:41;94969.06;;;7.30;68.40
22651;BME280;11492;42.646;23.400;2022-12-24T10:15:42;94985.72;;;7.10;69.46
22651;BME280;11492;42.646;23.400;2022-12-24T10:18:21;94973.03;;;7.09;70.30
22651;BME280;11492;42.646;23.400;2022-12-24T10:20:57;94976.09;;;7.12;69.55
22651;BME280;11492;42.646;23.400;2022-12-24T10:23:48;94970.97;;;7.12;69.65
22651;BME280;11492;42.646;23.400;2022-12-24T10:26:27;94965.53;;;7.15;69.36
22651;BME280;11492;42.646;23.400;2022-12-24T10:29:01;94961.19;;;7.16;69.29
22651;BME280;11492;42.646;23.400;2022-12-24T10:31:35;94977.69;;;7.29;69.07
22651;BME280;11492;42.646;23.400;2022-12-24T10:34:05;94960.69;;;7.28;68.99
22651;BME280;11492;42.646;23.400;2022-12-24T10:36:37;94970.00;;;7.21;69.46
22651;BME280;11492;42.646;23.400;2022-12-24T10:39:02;94967.13;;;7.32;69.65
22651;BME280;11492;42.646;23.400;2022-12-24T10:41:29;94959.59;;;7.30;69.57
22651;BME280;11492;42.646;23.400;2022-12-24T10:43:56;94946.75;;;7.46;68.85
22651;BME280;11492;42.646;23.400;2022-12-24T10:46:38;94963.72;;;7.70;68.42
22651;BME280;11492;42.646;23.400;2022-12-24T10:49:07;94952.59;;;7.86;67.76
22651;BME280;11492;42.646;23.400;2022-12-24T10:51:41;94948.75;;;7.90;67.47
22651;BME280;11492;42.646;23.400;2022-12-24T10:54:12;94937.50;;;7.91;67.58
22651;BME280;11492;42.646;23.400;2022-12-24T10:56:50;94926.78;;;7.79;67.30
22651;BME280;11492;42.646;23.400;2022-12-24T10:59:33;94951.00;;;7.85;67.30
22651;BME280;11492;42.646;23.400;2022-12-24T11:02:01;94947.16;;;7.81;67.75
22651;BME280;11492;42.646;23.400;2022-12-24T11:04:31;94947.34;;;7.64;68.01
22651;BME280;11492;42.646;23.400;2022-12-24T11:07:02;94953.94;;;7.58;67.81
22651;BME280;11492;42.646;23.400;2022-12-24T11:09:31;94963.44;;;7.58;68.04
22651;BME280;11492;42.646;23.400;2022-12-24T11:11:58;94954.78;;;7.51;68.13
22651;BME280;11492;42.646;23.400;2022-12-24T11:14:32;94948.34;;;7.39;68.24
22651;BME280;11492;42.646;23.400;2022-12-24T11:16:58;94953.78;;;7.44;69.19
22651;BME280;11492;42.646;23.400;2022-12-24T11:19:36;94959.25;;;7.49;68.92
22651;BME280;11492;42.646;23.400;2022-12-24T11:22:17;94950.41;;;7.59;68.62
22651;BME280;11492;42.646;23.400;2022-12-24T11:24:43;94938.50;;;7.74;68.51
22651;BME280;11492;42.646;23.400;2022-12-24T11:33:32;94935.59;;;7.85;67.41
22651;BME280;11492;42.646;23.400;2022-12-24T11:35:32;94937.19;;;7.94;67.47
22651;BME280;11492;42.646;23.400;2022-12-24T11:40:41;94958.00;;;8.22;66.83
22651;BME280;11492;42.646;23.400;2022-12-24T11:43:15;94952.78;;;8.46;66.36
22651;BME280;11492;42.646;23.400;2022-12-24T11:45:51;94945.66;;;8.85;65.86
22651;BME280;11492;42.646;23.400;2022-12-24T11:48:24;94952.78;;;9.27;64.22
22651;BME280;11492;42.646;23.400;2022-12-24T11:51:24;94943.94;;;9.80;63.16
22651;BME280;11492;42.646;23.400;2022-12-24T11:56:45;94928.88;;;10.20;60.17
22651;BME280;11492;42.646;23.400;2022-12-24T11:59:32;94938.81;;;10.23;60.75
22651;BME280;11492;42.646;23.400;2022-12-24T12:02:22;94932.25;;;10.06;60.35
22651;BME280;11492;42.646;23.400;2022-12-24T12:04:53;94918.66;;;9.76;60.69
22651;BME280;11492;42.646;23.400;2022-12-24T12:07:31;94923.75;;;9.70;61.67
22651;BME280;11492;42.646;23.400;2022-12-24T12:10:18;94931.09;;;9.58;62.31
22651;BME280;11492;42.646;23.400;2022-12-24T12:15:24;94932.75;;;9.51;62.68
22651;BME280;11492;42.646;23.400;2022-12-24T12:17:55;94923.69;;;9.55;61.85
22651;BME280;11492;42.646;23.400;2022-12-24T12:20:30;94917.84;;;9.47;62.20
22651;BME280;11492;42.646;23.400;2022-12-24T12:25:52;94930.16;;;9.37;62.77
22651;BME280;11492;42.646;23.400;2022-12-24T12:28:29;94929.59;;;9.42;62.80
22651;BME280;11492;42.646;23.400;2022-12-24T12:31:15;94919.66;;;9.39;62.43
22651;BME280;11492;42.646;23.400;2022-12-24T12:33:48;94920.00;;;9.36;62.96
22651;BME280;11492;42.646;23.400;2022-12-24T12:36:20;94927.22;;;9.40;62.59
22651;BME280;11492;42.646;23.400;2022-12-24T12:38:47;94925.09;;;9.44;62.41
22651;BME280;11492;42.646;23.400;2022-12-24T12:41:47;94933.72;;;9.50;63.15
22651;BME280;11492;42.646;23.400;2022-12-24T12:50:21;94921.88;;;9.78;62.08
22651;BME280;11492;42.646;23.400;2022-12-24T12:53:27;94926.34;;;9.84;62.67
22651;BME280;11492;42.646;23.400;2022-12-24T12:56:31;94930.25;;;9.80;61.84
22651;BME280;11492;42.646;23.400;2022-12-24T12:59:06;94939.13;;;9.77;62.10
22651;BME280;11492;42.646;23.400;2022-12-24T13:01:49;94943.19;;;9.72;62.02
22651;BME280;11492;42.646;23.400;2022-12-24T13:21:23;94960.84;;;9.61;62.40
22651;BME280;11492;42.646;23.400;2022-12-24T13:23:50;94962.47;;;9.62;62.87
22651;BME280;11492;42.646;23.400;2022-12-24T13:26:16;94967.00;;;9.60;63.41
22651;BME280;11492;42.646;23.400;2022-12-24T13:28:43;94976.69;;;9.58;63.72
22651;BME280;11492;42.646;23.400;2022-12-24T13:33:59;94974.69;;;9.45;64.34
22651;BME280;11492;42.646;23.400;2022-12-24T13:37:00;94986.66;;;9.39;64.97
22651;BME280;11492;42.646;23.400;2022-12-24T13:39:27;94987.69;;;9.30;65.21
22651;BME280;11492;42.646;23.400;2022-12-24T13:41:52;94986.78;;;9.23;65.21
22651;BME280;11492;42.646;23.400;2022-12-24T13:44:20;94983.91;;;9.18;65.92
22651;BME280;11492;42.646;23.400;2022-12-24T13:49:18;94993.00;;;9.06;66.08
22651;BME280;11492;42.646;23.400;2022-12-24T13:51:45;94981.75;;;8.99;66.55
22651;BME280;11492;42.646;23.400;2022-12-24T13:54:12;94994.00;;;8.97;67.24
22651;BME280;11492;42.646;23.400;2022-12-24T13:56:40;94985.06;;;8.86;68.61
22651;BME280;11492;42.646;23.400;2022-12-24T14:01:39;94977.09;;;8.73;68.74
22651;BME280;11492;42.646;23.400;2022-12-24T14:04:08;94993.13;;;8.83;68.91
22651;BME280;11492;42.646;23.400;2022-12-24T14:06:37;94998.63;;;8.80;69.43
22651;BME280;11492;42.646;23.400;2022-12-24T14:14:29;94996.47;;;8.53;70.01
22651;BME280;11492;42.646;23.400;2022-12-24T14:17:00;94997.78;;;8.49;71.33
22651;BME280;11492;42.646;23.400;2022-12-24T14:19:53;94998.22;;;8.53;71.37
22651;BME280;11492;42.646;23.400;2022-12-24T14:22:35;95003.06;;;8.48;71.94
22651;BME280;11492;42.646;23.400;2022-12-24T14:25:11;94983.34;;;8.33;72.94
22651;BME280;11492;42.646;23.400;2022-12-24T14:30:18;94982.44;;;8.26;74.76
22651;BME280;11492;42.646;23.400;2022-12-24T14:32:45;94996.56;;;8.22;74.36
22651;BME280;11492;42.646;23.400;2022-12-24T14:35:26;95011.50;;;8.26;74.49
22651;BME280;11492;42.646;23.400;2022-12-24T14:40:32;95017.94;;;8.22;76.73
22651;BME280;11492;42.646;23.400;2022-12-24T14:43:19;95005.59;;;8.18;77.73